createdAt,value
2019-05-26T00:00:32.499Z,99317.55
2019-05-26T00:04:53.664Z,99312.01
2019-05-26T00:09:13.632Z,99308.26
2019-05-26T00:13:36.922Z,99305.90
2019-05-26T00:17:57.480Z,99311.80
2019-05-26T00:22:17.945Z,99302.52
2019-05-26T00:26:38.634Z,99307.44
2019-05-26T00:30:59.034Z,99299.94
2019-05-26T00:35:19.777Z,99296.20
2019-05-26T00:39:40.270Z,99301.53
2019-05-26T00:44:00.919Z,99287.92
2019-05-26T00:48:21.344Z,99285.53
2019-05-26T00:52:42.008Z,99281.59
2019-05-26T00:57:03.200Z,99290.48
2019-05-26T01:01:23.233Z,99292.42
2019-05-26T01:05:43.607Z,99294.98
2019-05-26T01:10:05.003Z,99283.91
2019-05-26T01:14:25.796Z,99282.31
2019-05-26T01:18:46.076Z,99286.63
2019-05-26T01:23:06.974Z,99288.58
2019-05-26T01:27:27.274Z,99284.45
2019-05-26T01:31:48.472Z,99284.06
2019-05-26T01:36:09.088Z,99283.23
2019-05-26T01:40:37.404Z,99277.91
2019-05-26T01:44:57.323Z,99278.48
2019-05-26T01:49:17.724Z,99280.45
2019-05-26T01:53:38.020Z,99280.63
2019-05-26T01:57:58.142Z,99277.68
2019-05-26T02:02:18.193Z,99288.12
2019-05-26T02:06:38.816Z,99289.09
2019-05-26T02:10:59.458Z,99285.34
2019-05-26T02:15:20.625Z,99289.66
2019-05-26T02:19:42.353Z,99278.80
2019-05-26T02:24:02.798Z,99280.80
2019-05-26T02:28:22.801Z,99278.28
2019-05-26T02:32:43.649Z,99280.45
2019-05-26T02:37:04.696Z,99270.82
2019-05-26T02:41:25.260Z,99279.50
2019-05-26T02:45:45.687Z,99272.41
2019-05-26T02:50:06.830Z,99276.00
2019-05-26T02:54:27.471Z,99283.69
2019-05-26T02:58:48.023Z,99269.28
2019-05-26T03:03:08.591Z,99269.50
2019-05-26T03:07:31.020Z,99271.86
2019-05-26T03:11:52.960Z,99268.53
2019-05-26T03:16:15.196Z,99263.02
2019-05-26T03:20:37.616Z,99267.14
2019-05-26T03:24:59.838Z,99265.56
2019-05-26T03:29:20.366Z,99254.92
2019-05-26T03:33:40.654Z,99259.84
2019-05-26T03:38:01.344Z,99258.64
2019-05-26T03:42:21.787Z,99258.67
2019-05-26T03:46:42.243Z,99262.37
2019-05-26T03:51:02.748Z,99264.56
2019-05-26T03:55:23.365Z,99270.30
2019-05-26T03:59:44.001Z,99256.25
2019-05-26T04:04:04.838Z,99251.55
2019-05-26T04:08:25.298Z,99246.80
2019-05-26T04:12:45.812Z,99246.80
2019-05-26T04:17:06.437Z,99260.78
2019-05-26T04:21:27.037Z,99265.73
2019-05-26T04:25:47.939Z,99262.16
2019-05-26T04:30:08.358Z,99252.11
2019-05-26T04:34:29.113Z,99254.08
2019-05-26T04:38:49.258Z,99252.52
2019-05-26T04:43:14.429Z,99259.23
2019-05-26T04:47:32.552Z,99252.35
2019-05-26T04:51:53.057Z,99260.03
2019-05-26T04:56:13.964Z,99249.02
2019-05-26T05:00:34.622Z,99252.35
2019-05-26T05:04:55.335Z,99249.00
2019-05-26T05:09:16.162Z,99245.50
2019-05-26T05:13:37.348Z,99249.25
2019-05-26T05:17:57.478Z,99243.74
2019-05-26T05:22:17.596Z,99243.73
2019-05-26T05:26:37.880Z,99242.52
2019-05-26T05:30:58.271Z,99250.81
2019-05-26T05:35:18.906Z,99246.27
2019-05-26T05:39:39.470Z,99246.64
2019-05-26T05:43:59.612Z,99244.47
2019-05-26T05:48:20.253Z,99248.40
2019-05-26T05:52:41.176Z,99245.19
2019-05-26T05:57:01.731Z,99240.45
2019-05-26T06:01:22.504Z,99243.52
2019-05-26T06:05:43.004Z,99241.56
2019-05-26T06:10:05.491Z,99234.16
2019-05-26T06:14:26.174Z,99234.73
2019-05-26T06:18:47.219Z,99229.42
2019-05-26T06:23:08.139Z,99227.16
2019-05-26T06:27:28.650Z,99224.28
2019-05-26T06:31:49.390Z,99225.78
2019-05-26T06:36:10.040Z,99223.91
2019-05-26T06:40:30.131Z,99225.92
2019-05-26T06:44:53.851Z,99224.57
2019-05-26T06:49:12.476Z,99224.91
2019-05-26T06:53:36.988Z,99220.66
2019-05-26T06:57:55.760Z,99222.23
2019-05-26T07:02:16.581Z,99226.61
2019-05-26T07:06:37.033Z,99228.98
2019-05-26T07:10:57.850Z,99229.02
2019-05-26T07:15:18.428Z,99219.33
2019-05-26T07:19:39.036Z,99229.34
2019-05-26T07:23:59.623Z,99229.46
2019-05-26T07:28:20.434Z,99228.72
2019-05-26T07:32:41.038Z,99226.59
2019-05-26T07:37:01.611Z,99225.75
2019-05-26T07:41:22.187Z,99220.38
2019-05-26T07:45:43.085Z,99222.08
2019-05-26T07:50:04.111Z,99228.97
2019-05-26T07:54:26.071Z,99225.80
2019-05-26T07:58:46.657Z,99220.86
2019-05-26T08:03:07.094Z,99225.77
2019-05-26T08:07:27.211Z,99230.05
2019-05-26T08:11:47.647Z,99227.42
2019-05-26T08:16:08.392Z,99228.55
2019-05-26T08:20:29.646Z,99230.61
2019-05-26T08:24:49.770Z,99223.57
2019-05-26T08:29:10.931Z,99214.31
2019-05-26T08:33:31.722Z,99215.91
2019-05-26T08:37:52.595Z,99200.80
2019-05-26T08:42:26.411Z,99204.65
2019-05-26T08:46:35.527Z,99205.91
2019-05-26T08:50:55.995Z,99200.47
2019-05-26T08:55:16.550Z,99196.47
2019-05-26T08:59:37.663Z,99185.24
2019-05-26T09:03:58.280Z,99184.98
2019-05-26T09:08:18.730Z,99174.88
2019-05-26T09:12:39.525Z,99167.20
2019-05-26T09:16:59.926Z,99171.89
2019-05-26T09:21:23.793Z,99180.00
2019-05-26T09:25:48.652Z,99170.94
2019-05-26T09:30:10.678Z,99166.02
2019-05-26T09:34:32.984Z,99159.14
2019-05-26T09:38:54.075Z,99154.86
2019-05-26T09:43:16.511Z,99150.05
2019-05-26T09:47:36.404Z,99140.17
2019-05-26T09:51:57.531Z,99146.00
2019-05-26T09:56:18.345Z,99142.86
2019-05-26T10:00:39.964Z,99146.89
2019-05-26T10:05:00.376Z,99147.30
2019-05-26T10:09:20.493Z,99147.95
2019-05-26T10:13:41.568Z,99149.48
2019-05-26T10:18:01.927Z,99145.40
2019-05-26T10:22:22.334Z,99151.61
2019-05-26T10:26:43.054Z,99146.53
2019-05-26T10:31:04.517Z,99147.16
2019-05-26T10:35:25.066Z,99144.84
2019-05-26T10:39:46.443Z,99144.14
2019-05-26T10:44:06.842Z,99144.86
2019-05-26T10:48:27.631Z,99139.68
2019-05-26T10:52:48.250Z,99139.33
2019-05-26T10:57:12.569Z,99141.14
2019-05-26T11:01:33.075Z,99148.39
2019-05-26T11:05:54.201Z,99138.82
2019-05-26T11:10:15.199Z,99131.65
2019-05-26T11:14:36.125Z,99135.31
2019-05-26T11:18:56.757Z,99127.94
2019-05-26T11:23:21.746Z,99124.87
2019-05-26T11:27:42.414Z,99122.84
2019-05-26T11:32:02.751Z,99116.22
2019-05-26T11:36:23.351Z,99111.42
2019-05-26T11:40:49.578Z,99108.84
2019-05-26T11:45:11.137Z,99101.03
2019-05-26T11:49:31.807Z,99100.53
2019-05-26T12:03:56.594Z,99098.68
2019-05-26T12:08:17.656Z,99090.81
2019-05-26T12:12:38.150Z,99080.59
2019-05-26T12:17:01.799Z,99082.25
2019-05-26T12:21:22.367Z,99073.77
2019-05-26T12:25:43.377Z,99069.22
2019-05-26T12:30:04.297Z,99065.94
2019-05-26T12:34:25.433Z,99066.43
2019-05-26T12:38:49.415Z,99067.34
2019-05-26T12:43:10.143Z,99058.28
2019-05-26T12:47:30.863Z,99056.34
2019-05-26T12:51:51.129Z,99052.80
2019-05-26T12:56:11.838Z,99048.97
2019-05-26T13:00:48.212Z,99045.21
2019-05-26T13:04:57.102Z,99040.19
2019-05-26T13:09:17.365Z,99033.31
2019-05-26T13:13:19.468Z,99034.83
2019-05-26T13:17:21.184Z,99034.61
2019-05-26T13:21:23.573Z,99030.10
2019-05-26T13:25:44.576Z,99023.41
2019-05-26T13:29:46.532Z,99021.91
2019-05-26T13:33:52.803Z,99014.94
2019-05-26T13:37:54.798Z,99022.14
2019-05-26T13:41:57.077Z,99016.98
2019-05-26T13:45:59.095Z,99009.11
2019-05-26T13:50:02.285Z,99009.16
2019-05-26T13:54:04.636Z,99006.39
2019-05-26T13:58:06.965Z,99009.75
2019-05-26T14:02:09.398Z,99003.59
2019-05-26T14:06:14.587Z,98999.14
2019-05-26T14:10:30.778Z,98994.48
2019-05-26T14:14:33.689Z,98991.20
2019-05-26T14:18:35.908Z,98984.34
2019-05-26T14:22:37.718Z,98984.00
2019-05-26T14:26:39.921Z,98981.38
2019-05-26T14:30:41.744Z,98976.23
2019-05-26T14:34:43.577Z,98976.08
2019-05-26T14:38:45.661Z,98971.70
2019-05-26T14:42:48.025Z,98962.67
2019-05-26T14:46:49.963Z,98963.25
2019-05-26T14:50:54.493Z,98958.33
2019-05-26T14:54:56.328Z,98961.64
2019-05-26T14:58:58.512Z,98965.91
2019-05-26T15:03:00.346Z,98966.63
2019-05-26T15:07:03.043Z,98951.05
2019-05-26T15:11:05.840Z,98946.64
2019-05-26T15:15:08.524Z,98945.05
2019-05-26T15:19:10.742Z,98942.00
2019-05-26T15:23:13.524Z,98934.58
2019-05-26T15:27:15.768Z,98934.08
2019-05-26T15:31:18.501Z,98932.95
2019-05-26T15:35:21.216Z,98935.09
2019-05-26T15:39:25.935Z,98927.70
2019-05-26T15:43:32.272Z,98927.28
2019-05-26T15:47:34.953Z,98922.85
2019-05-26T15:51:42.849Z,98918.73
2019-05-26T15:55:47.860Z,98919.16
2019-05-26T15:59:57.972Z,98917.55
2019-05-26T16:04:00.171Z,98911.30
2019-05-26T16:08:02.456Z,98916.11
2019-05-26T16:12:04.840Z,98906.84
2019-05-26T16:16:06.652Z,98901.20
2019-05-26T16:20:09.952Z,98900.46
2019-05-26T16:24:12.026Z,98903.95
2019-05-26T16:28:14.597Z,98895.13
2019-05-26T16:32:18.862Z,98890.95
2019-05-26T16:36:21.383Z,98880.14
2019-05-26T16:40:24.524Z,98885.29
2019-05-26T16:44:26.373Z,98878.06
2019-05-26T16:48:28.999Z,98881.66
2019-05-26T16:52:35.524Z,98872.28
2019-05-26T16:56:41.502Z,98870.16
2019-05-26T17:00:43.809Z,98860.04
2019-05-26T17:05:05.832Z,98858.70
2019-05-26T17:09:12.983Z,98848.78
2019-05-26T17:13:16.214Z,98857.87
2019-05-26T17:17:18.253Z,98854.12
2019-05-26T17:21:20.245Z,98857.81
2019-05-26T17:25:22.843Z,98847.52
2019-05-26T17:29:25.637Z,98848.24
2019-05-26T17:33:27.744Z,98850.27
2019-05-26T17:37:29.934Z,98844.64
2019-05-26T17:41:31.715Z,98832.98
2019-05-26T17:45:33.521Z,98827.73
2019-05-26T17:49:36.256Z,98841.72
2019-05-26T17:53:38.225Z,98838.13
2019-05-26T17:57:40.622Z,98837.28
2019-05-26T18:01:42.801Z,98829.17
2019-05-26T18:05:45.162Z,98833.69
2019-05-26T18:09:47.337Z,98830.94
2019-05-26T18:13:55.438Z,98812.52
2019-05-26T18:17:57.624Z,98814.34
2019-05-26T18:22:00.931Z,98796.74
2019-05-26T18:26:03.351Z,98800.98
2019-05-26T18:30:06.531Z,98795.91
2019-05-26T18:34:08.608Z,98800.45
2019-05-26T18:38:11.208Z,98805.13
2019-05-26T18:42:13.922Z,98802.58
2019-05-26T18:46:20.854Z,98805.63
2019-05-26T18:50:23.627Z,98799.38
2019-05-26T18:54:25.975Z,98793.52
2019-05-26T18:58:28.256Z,98787.81
2019-05-26T19:02:30.421Z,98790.37
2019-05-26T19:06:33.196Z,98781.29
2019-05-26T19:10:36.707Z,98773.03
2019-05-26T19:14:39.761Z,98770.66
2019-05-26T19:18:42.658Z,98769.28
2019-05-26T19:22:45.133Z,98770.23
2019-05-26T19:26:47.265Z,98768.63
2019-05-26T19:30:50.198Z,98767.70
2019-05-26T19:34:52.133Z,98776.35
2019-05-26T19:38:54.692Z,98778.76
2019-05-26T19:42:57.338Z,98768.67
2019-05-26T19:47:00.159Z,98765.20
2019-05-26T19:51:03.602Z,98768.56
2019-05-26T19:55:06.576Z,98775.54
2019-05-26T19:59:08.537Z,98771.39
2019-05-26T20:03:10.470Z,98778.08
2019-05-26T20:07:12.372Z,98773.08
2019-05-26T20:11:17.441Z,98781.16
2019-05-26T20:15:22.779Z,98784.84
2019-05-26T20:19:25.584Z,98784.83
2019-05-26T20:23:27.557Z,98780.60
2019-05-26T20:27:30.187Z,98781.53
2019-05-26T20:31:32.577Z,98776.20
2019-05-26T20:35:35.119Z,98776.94
2019-05-26T20:39:37.599Z,98768.19
2019-05-26T20:43:49.611Z,98777.34
2019-05-26T20:47:51.889Z,98782.58
2019-05-26T20:51:57.753Z,98776.09
2019-05-26T20:56:00.179Z,98780.22
2019-05-26T21:00:03.574Z,98772.83
2019-05-26T21:04:06.349Z,98782.52
2019-05-26T21:08:09.725Z,98771.16
2019-05-26T21:12:15.356Z,98768.66
2019-05-26T21:16:20.519Z,98772.23
2019-05-26T21:20:22.636Z,98778.00
2019-05-26T21:24:27.724Z,98772.61
2019-05-26T21:28:29.596Z,98770.70
2019-05-26T21:32:32.273Z,98773.84
2019-05-26T21:36:35.283Z,98771.34
2019-05-26T21:40:37.894Z,98772.00
2019-05-26T21:44:40.304Z,98775.23
2019-05-26T21:48:42.192Z,98763.67
2019-05-26T21:52:44.615Z,98783.95
2019-05-26T21:56:46.601Z,98770.05
2019-05-26T22:00:49.526Z,98770.73
2019-05-26T22:04:51.623Z,98765.58
2019-05-26T22:08:54.092Z,98762.16
2019-05-26T22:12:56.346Z,98763.25
2019-05-26T22:16:58.397Z,98757.84
2019-05-26T22:21:00.189Z,98753.52
2019-05-26T22:25:02.153Z,98752.13
2019-05-26T22:29:04.196Z,98747.25
2019-05-26T22:33:06.691Z,98746.44
2019-05-26T22:37:08.492Z,98745.27
2019-05-26T22:41:10.659Z,98754.59
2019-05-26T22:45:12.703Z,98745.55
2019-05-26T22:49:14.833Z,98738.42
2019-05-26T22:53:18.958Z,98737.86
2019-05-26T22:57:21.269Z,98735.75
2019-05-26T23:01:24.008Z,98739.75
2019-05-26T23:05:26.258Z,98740.28
2019-05-26T23:09:28.292Z,98731.84
2019-05-26T23:13:30.426Z,98724.05
2019-05-26T23:17:32.283Z,98721.84
2019-05-26T23:21:34.422Z,98714.53
2019-05-26T23:25:36.152Z,98704.98
2019-05-26T23:29:38.310Z,98699.41
2019-05-26T23:33:40.114Z,98689.32
2019-05-26T23:37:42.018Z,98688.79
2019-05-26T23:41:44.397Z,98686.07
2019-05-26T23:45:46.388Z,98681.52
2019-05-26T23:49:48.131Z,98681.61
2019-05-26T23:53:49.993Z,98676.18
